sensor_id;sensor_type;location;lat;lon;timestamp;P1;durP1;ratioP1;P2;durP2;ratioP2
61477;SDS011;47345;52.334;10.392;2022-10-22T00:00:10;6.70;;;4.30;;
61477;SDS011;47345;52.334;10.392;2022-10-22T00:02:42;6.60;;;4.60;;
61477;SDS011;47345;52.334;10.392;2022-10-22T00:05:13;7.20;;;4.80;;
61477;SDS011;47345;52.334;10.392;2022-10-22T00:07:43;7.00;;;4.40;;
61477;SDS011;47345;52.334;10.392;2022-10-22T00:10:14;7.30;;;4.60;;
61477;SDS011;47345;52.334;10.392;2022-10-22T00:12:48;9.40;;;4.50;;
61477;SDS011;47345;52.334;10.392;2022-10-22T00:15:19;7.70;;;4.80;;
61477;SDS011;47345;52.334;10.392;2022-10-22T00:17:49;6.80;;;4.20;;
61477;SDS011;47345;52.334;10.392;2022-10-22T00:20:21;7.70;;;4.40;;
61477;SDS011;47345;52.334;10.392;2022-10-22T00:22:52;6.70;;;4.40;;
61477;SDS011;47345;52.334;10.392;2022-10-22T00:25:22;7.80;;;4.60;;
61477;SDS011;47345;52.334;10.392;2022-10-22T00:27:53;6.20;;;4.30;;
61477;SDS011;47345;52.334;10.392;2022-10-22T00:30:23;5.90;;;4.20;;
61477;SDS011;47345;52.334;10.392;2022-10-22T00:32:53;6.40;;;4.50;;
61477;SDS011;47345;52.334;10.392;2022-10-22T00:35:24;5.20;;;4.10;;
61477;SDS011;47345;52.334;10.392;2022-10-22T00:37:55;6.00;;;4.20;;
61477;SDS011;47345;52.334;10.392;2022-10-22T00:40:25;5.40;;;3.80;;
61477;SDS011;47345;52.334;10.392;2022-10-22T00:42:56;7.00;;;4.20;;
61477;SDS011;47345;52.334;10.392;2022-10-22T00:45:26;6.30;;;4.30;;
61477;SDS011;47345;52.334;10.392;2022-10-22T00:47:58;6.70;;;4.40;;
61477;SDS011;47345;52.334;10.392;2022-10-22T00:50:32;5.90;;;4.30;;
61477;SDS011;47345;52.334;10.392;2022-10-22T00:53:06;6.00;;;3.80;;
61477;SDS011;47345;52.334;10.392;2022-10-22T00:55:41;5.80;;;3.80;;
61477;SDS011;47345;52.334;10.392;2022-10-22T00:58:13;6.10;;;3.90;;
61477;SDS011;47345;52.334;10.392;2022-10-22T01:00:47;5.10;;;3.70;;
61477;SDS011;47345;52.334;10.392;2022-10-22T01:03:18;7.00;;;3.90;;
61477;SDS011;47345;52.334;10.392;2022-10-22T01:05:51;5.50;;;3.70;;
61477;SDS011;47345;52.334;10.392;2022-10-22T01:08:25;7.80;;;4.10;;
61477;SDS011;47345;52.334;10.392;2022-10-22T01:11:07;6.30;;;4.10;;
61477;SDS011;47345;52.334;10.392;2022-10-22T01:13:48;5.90;;;4.30;;
61477;SDS011;47345;52.334;10.392;2022-10-22T01:16:26;6.20;;;4.20;;
61477;SDS011;47345;52.334;10.392;2022-10-22T01:19:14;5.60;;;4.10;;
61477;SDS011;47345;52.334;10.392;2022-10-22T01:21:57;6.20;;;4.10;;
61477;SDS011;47345;52.334;10.392;2022-10-22T01:24:38;4.80;;;3.60;;
61477;SDS011;47345;52.334;10.392;2022-10-22T01:27:21;6.80;;;3.60;;
61477;SDS011;47345;52.334;10.392;2022-10-22T01:29:59;6.10;;;4.10;;
61477;SDS011;47345;52.334;10.392;2022-10-22T01:32:33;5.00;;;3.70;;
61477;SDS011;47345;52.334;10.392;2022-10-22T01:35:10;5.30;;;3.80;;
61477;SDS011;47345;52.334;10.392;2022-10-22T01:37:44;7.00;;;4.50;;
61477;SDS011;47345;52.334;10.392;2022-10-22T01:40:17;7.70;;;5.00;;
61477;SDS011;47345;52.334;10.392;2022-10-22T01:42:59;5.60;;;4.30;;
61477;SDS011;47345;52.334;10.392;2022-10-22T01:45:32;5.60;;;3.70;;
61477;SDS011;47345;52.334;10.392;2022-10-22T01:48:08;6.10;;;4.30;;
61477;SDS011;47345;52.334;10.392;2022-10-22T01:50:52;8.40;;;4.10;;
61477;SDS011;47345;52.334;10.392;2022-10-22T01:53:36;6.40;;;4.40;;
61477;SDS011;47345;52.334;10.392;2022-10-22T01:56:24;5.30;;;4.00;;
61477;SDS011;47345;52.334;10.392;2022-10-22T01:59:13;6.40;;;3.70;;
61477;SDS011;47345;52.334;10.392;2022-10-22T02:01:52;7.50;;;4.10;;
61477;SDS011;47345;52.334;10.392;2022-10-22T02:04:28;4.60;;;3.40;;
61477;SDS011;47345;52.334;10.392;2022-10-22T02:07:03;5.10;;;3.80;;
61477;SDS011;47345;52.334;10.392;2022-10-22T02:09:37;6.60;;;4.10;;
61477;SDS011;47345;52.334;10.392;2022-10-22T02:12:09;6.00;;;4.00;;
61477;SDS011;47345;52.334;10.392;2022-10-22T02:14:42;13.30;;;4.10;;
61477;SDS011;47345;52.334;10.392;2022-10-22T02:17:15;4.70;;;3.50;;
61477;SDS011;47345;52.334;10.392;2022-10-22T02:19:52;4.90;;;3.80;;
61477;SDS011;47345;52.334;10.392;2022-10-22T02:22:24;6.00;;;3.70;;
61477;SDS011;47345;52.334;10.392;2022-10-22T02:24:56;6.50;;;3.90;;
61477;SDS011;47345;52.334;10.392;2022-10-22T02:27:27;6.10;;;3.70;;
61477;SDS011;47345;52.334;10.392;2022-10-22T02:30:03;5.20;;;3.60;;
61477;SDS011;47345;52.334;10.392;2022-10-22T02:32:37;6.50;;;4.30;;
61477;SDS011;47345;52.334;10.392;2022-10-22T02:35:12;4.60;;;3.70;;
61477;SDS011;47345;52.334;10.392;2022-10-22T02:37:46;6.60;;;4.00;;
61477;SDS011;47345;52.334;10.392;2022-10-22T02:40:20;6.10;;;3.70;;
61477;SDS011;47345;52.334;10.392;2022-10-22T02:42:51;5.80;;;3.70;;
61477;SDS011;47345;52.334;10.392;2022-10-22T02:45:22;6.00;;;3.90;;
61477;SDS011;47345;52.334;10.392;2022-10-22T02:47:53;4.60;;;3.70;;
61477;SDS011;47345;52.334;10.392;2022-10-22T02:50:25;4.70;;;3.30;;
61477;SDS011;47345;52.334;10.392;2022-10-22T02:52:56;3.60;;;3.00;;
61477;SDS011;47345;52.334;10.392;2022-10-22T02:55:27;4.60;;;3.30;;
61477;SDS011;47345;52.334;10.392;2022-10-22T02:57:58;3.30;;;3.00;;
61477;SDS011;47345;52.334;10.392;2022-10-22T03:00:28;3.60;;;3.00;;
61477;SDS011;47345;52.334;10.392;2022-10-22T03:02:59;4.10;;;3.10;;
61477;SDS011;47345;52.334;10.392;2022-10-22T03:05:29;4.20;;;3.20;;
61477;SDS011;47345;52.334;10.392;2022-10-22T03:08:00;5.10;;;3.50;;
61477;SDS011;47345;52.334;10.392;2022-10-22T03:10:31;5.10;;;3.60;;
61477;SDS011;47345;52.334;10.392;2022-10-22T03:13:02;5.70;;;3.90;;
61477;SDS011;47345;52.334;10.392;2022-10-22T03:15:33;6.00;;;3.90;;
61477;SDS011;47345;52.334;10.392;2022-10-22T03:18:04;4.70;;;3.60;;
61477;SDS011;47345;52.334;10.392;2022-10-22T03:20:35;4.50;;;3.40;;
61477;SDS011;47345;52.334;10.392;2022-10-22T03:23:06;5.60;;;3.80;;
61477;SDS011;47345;52.334;10.392;2022-10-22T03:25:38;5.80;;;3.80;;
61477;SDS011;47345;52.334;10.392;2022-10-22T03:28:10;4.90;;;3.60;;
61477;SDS011;47345;52.334;10.392;2022-10-22T03:30:44;5.30;;;3.60;;
61477;SDS011;47345;52.334;10.392;2022-10-22T03:33:15;5.10;;;3.50;;
61477;SDS011;47345;52.334;10.392;2022-10-22T03:35:47;3.70;;;3.20;;
61477;SDS011;47345;52.334;10.392;2022-10-22T03:38:17;4.80;;;3.40;;
61477;SDS011;47345;52.334;10.392;2022-10-22T03:40:48;4.90;;;3.60;;
61477;SDS011;47345;52.334;10.392;2022-10-22T03:43:19;6.80;;;4.10;;
61477;SDS011;47345;52.334;10.392;2022-10-22T03:45:50;5.90;;;4.30;;
61477;SDS011;47345;52.334;10.392;2022-10-22T03:48:20;4.50;;;3.40;;
61477;SDS011;47345;52.334;10.392;2022-10-22T03:50:51;6.00;;;3.70;;
61477;SDS011;47345;52.334;10.392;2022-10-22T03:53:21;4.20;;;3.50;;
61477;SDS011;47345;52.334;10.392;2022-10-22T03:55:52;6.60;;;4.10;;
61477;SDS011;47345;52.334;10.392;2022-10-22T03:58:23;6.00;;;3.80;;
61477;SDS011;47345;52.334;10.392;2022-10-22T04:00:53;5.60;;;4.00;;
61477;SDS011;47345;52.334;10.392;2022-10-22T04:03:24;5.50;;;4.20;;
61477;SDS011;47345;52.334;10.392;2022-10-22T04:05:55;5.60;;;3.70;;
61477;SDS011;47345;52.334;10.392;2022-10-22T04:08:30;5.90;;;4.10;;
61477;SDS011;47345;52.334;10.392;2022-10-22T04:11:01;5.40;;;4.20;;
61477;SDS011;47345;52.334;10.392;2022-10-22T04:13:32;5.70;;;3.90;;
61477;SDS011;47345;52.334;10.392;2022-10-22T04:16:07;7.50;;;4.00;;
61477;SDS011;47345;52.334;10.392;2022-10-22T04:18:38;5.60;;;3.70;;
61477;SDS011;47345;52.334;10.392;2022-10-22T04:21:09;7.00;;;4.00;;
61477;SDS011;47345;52.334;10.392;2022-10-22T04:23:44;6.10;;;3.80;;
61477;SDS011;47345;52.334;10.392;2022-10-22T04:26:16;6.50;;;3.70;;
61477;SDS011;47345;52.334;10.392;2022-10-22T04:28:48;5.60;;;3.70;;
61477;SDS011;47345;52.334;10.392;2022-10-22T04:31:20;4.90;;;3.70;;
61477;SDS011;47345;52.334;10.392;2022-10-22T04:33:52;6.20;;;4.50;;
61477;SDS011;47345;52.334;10.392;2022-10-22T04:36:24;5.70;;;3.90;;
61477;SDS011;47345;52.334;10.392;2022-10-22T04:38:56;7.30;;;4.70;;
61477;SDS011;47345;52.334;10.392;2022-10-22T04:41:28;5.50;;;3.80;;
61477;SDS011;47345;52.334;10.392;2022-10-22T04:44:00;9.20;;;4.50;;
61477;SDS011;47345;52.334;10.392;2022-10-22T04:46:33;5.60;;;4.00;;
61477;SDS011;47345;52.334;10.392;2022-10-22T04:49:04;5.00;;;3.70;;
61477;SDS011;47345;52.334;10.392;2022-10-22T04:51:34;6.20;;;4.20;;
61477;SDS011;47345;52.334;10.392;2022-10-22T04:54:05;7.00;;;3.90;;
61477;SDS011;47345;52.334;10.392;2022-10-22T04:56:35;5.70;;;4.00;;
61477;SDS011;47345;52.334;10.392;2022-10-22T04:59:06;7.30;;;4.20;;
61477;SDS011;47345;52.334;10.392;2022-10-22T05:01:40;6.10;;;4.00;;
61477;SDS011;47345;52.334;10.392;2022-10-22T05:04:12;7.20;;;4.50;;
61477;SDS011;47345;52.334;10.392;2022-10-22T05:06:44;5.80;;;3.80;;
61477;SDS011;47345;52.334;10.392;2022-10-22T05:09:17;7.00;;;3.90;;
61477;SDS011;47345;52.334;10.392;2022-10-22T05:11:49;6.20;;;4.10;;
61477;SDS011;47345;52.334;10.392;2022-10-22T05:14:20;6.10;;;4.10;;
61477;SDS011;47345;52.334;10.392;2022-10-22T05:16:52;7.30;;;4.50;;
61477;SDS011;47345;52.334;10.392;2022-10-22T05:19:25;6.80;;;4.00;;
61477;SDS011;47345;52.334;10.392;2022-10-22T05:21:58;5.40;;;3.60;;
61477;SDS011;47345;52.334;10.392;2022-10-22T05:24:32;6.40;;;4.10;;
61477;SDS011;47345;52.334;10.392;2022-10-22T05:27:03;4.80;;;3.70;;
61477;SDS011;47345;52.334;10.392;2022-10-22T05:29:34;6.40;;;4.00;;
61477;SDS011;47345;52.334;10.392;2022-10-22T05:32:05;5.20;;;3.70;;
61477;SDS011;47345;52.334;10.392;2022-10-22T05:34:35;7.00;;;3.20;;
61477;SDS011;47345;52.334;10.392;2022-10-22T05:37:06;6.20;;;4.10;;
61477;SDS011;47345;52.334;10.392;2022-10-22T05:39:37;6.30;;;3.70;;
61477;SDS011;47345;52.334;10.392;2022-10-22T05:42:08;6.10;;;4.30;;
61477;SDS011;47345;52.334;10.392;2022-10-22T05:44:38;6.50;;;4.50;;
61477;SDS011;47345;52.334;10.392;2022-10-22T05:47:09;5.70;;;4.20;;
61477;SDS011;47345;52.334;10.392;2022-10-22T05:49:40;9.80;;;5.20;;
61477;SDS011;47345;52.334;10.392;2022-10-22T05:52:11;8.40;;;5.90;;
61477;SDS011;47345;52.334;10.392;2022-10-22T05:54:42;8.70;;;5.20;;
61477;SDS011;47345;52.334;10.392;2022-10-22T05:57:13;10.30;;;5.50;;
61477;SDS011;47345;52.334;10.392;2022-10-22T05:59:44;10.20;;;6.30;;
61477;SDS011;47345;52.334;10.392;2022-10-22T06:02:15;8.80;;;5.70;;
61477;SDS011;47345;52.334;10.392;2022-10-22T06:04:46;9.60;;;5.70;;
61477;SDS011;47345;52.334;10.392;2022-10-22T06:07:16;7.40;;;4.80;;
61477;SDS011;47345;52.334;10.392;2022-10-22T06:09:47;7.10;;;5.00;;
61477;SDS011;47345;52.334;10.392;2022-10-22T06:12:17;8.50;;;5.20;;
61477;SDS011;47345;52.334;10.392;2022-10-22T06:14:48;8.40;;;5.70;;
61477;SDS011;47345;52.334;10.392;2022-10-22T06:17:18;9.30;;;5.60;;
61477;SDS011;47345;52.334;10.392;2022-10-22T06:19:49;9.30;;;5.70;;
61477;SDS011;47345;52.334;10.392;2022-10-22T06:22:20;7.10;;;4.60;;
61477;SDS011;47345;52.334;10.392;2022-10-22T06:24:50;6.70;;;4.30;;
61477;SDS011;47345;52.334;10.392;2022-10-22T06:27:21;6.20;;;4.70;;
61477;SDS011;47345;52.334;10.392;2022-10-22T06:29:52;6.70;;;4.80;;
61477;SDS011;47345;52.334;10.392;2022-10-22T06:32:23;7.90;;;5.00;;
61477;SDS011;47345;52.334;10.392;2022-10-22T06:34:54;8.40;;;4.90;;
61477;SDS011;47345;52.334;10.392;2022-10-22T06:37:25;10.80;;;6.80;;
61477;SDS011;47345;52.334;10.392;2022-10-22T06:39:55;8.30;;;5.80;;
61477;SDS011;47345;52.334;10.392;2022-10-22T06:42:27;11.00;;;6.70;;
61477;SDS011;47345;52.334;10.392;2022-10-22T06:44:58;9.80;;;6.50;;
61477;SDS011;47345;52.334;10.392;2022-10-22T06:47:30;6.60;;;5.10;;
61477;SDS011;47345;52.334;10.392;2022-10-22T06:50:00;8.70;;;5.10;;
61477;SDS011;47345;52.334;10.392;2022-10-22T06:52:31;8.20;;;5.00;;
61477;SDS011;47345;52.334;10.392;2022-10-22T06:55:02;7.40;;;5.20;;
61477;SDS011;47345;52.334;10.392;2022-10-22T06:57:34;6.20;;;4.30;;
61477;SDS011;47345;52.334;10.392;2022-10-22T07:00:06;8.10;;;5.10;;
61477;SDS011;47345;52.334;10.392;2022-10-22T07:02:38;7.30;;;4.60;;
61477;SDS011;47345;52.334;10.392;2022-10-22T07:05:09;7.60;;;4.90;;
61477;SDS011;47345;52.334;10.392;2022-10-22T07:07:39;17.00;;;4.80;;
61477;SDS011;47345;52.334;10.392;2022-10-22T07:10:10;12.20;;;5.90;;
61477;SDS011;47345;52.334;10.392;2022-10-22T07:12:41;7.70;;;4.80;;
61477;SDS011;47345;52.334;10.392;2022-10-22T07:15:11;7.70;;;5.30;;
61477;SDS011;47345;52.334;10.392;2022-10-22T07:17:42;6.20;;;4.80;;
61477;SDS011;47345;52.334;10.392;2022-10-22T07:20:13;6.30;;;4.80;;
61477;SDS011;47345;52.334;10.392;2022-10-22T07:22:45;6.80;;;5.00;;
61477;SDS011;47345;52.334;10.392;2022-10-22T07:25:16;7.00;;;4.50;;
61477;SDS011;47345;52.334;10.392;2022-10-22T07:27:47;6.90;;;4.70;;
61477;SDS011;47345;52.334;10.392;2022-10-22T07:30:19;7.90;;;4.90;;
61477;SDS011;47345;52.334;10.392;2022-10-22T07:32:50;8.80;;;5.00;;
61477;SDS011;47345;52.334;10.392;2022-10-22T07:35:21;10.10;;;5.60;;
61477;SDS011;47345;52.334;10.392;2022-10-22T07:37:52;9.10;;;5.30;;
61477;SDS011;47345;52.334;10.392;2022-10-22T07:40:23;7.80;;;4.90;;
61477;SDS011;47345;52.334;10.392;2022-10-22T07:42:54;6.90;;;5.10;;
61477;SDS011;47345;52.334;10.392;2022-10-22T07:45:24;7.60;;;4.70;;
61477;SDS011;47345;52.334;10.392;2022-10-22T07:47:55;11.50;;;4.90;;
61477;SDS011;47345;52.334;10.392;2022-10-22T07:50:27;6.00;;;4.70;;
61477;SDS011;47345;52.334;10.392;2022-10-22T07:52:57;7.30;;;5.20;;
61477;SDS011;47345;52.334;10.392;2022-10-22T07:55:28;9.10;;;5.50;;
61477;SDS011;47345;52.334;10.392;2022-10-22T07:57:59;7.80;;;5.20;;
61477;SDS011;47345;52.334;10.392;2022-10-22T08:00:30;7.70;;;5.30;;
61477;SDS011;47345;52.334;10.392;2022-10-22T08:03:00;7.40;;;5.10;;
61477;SDS011;47345;52.334;10.392;2022-10-22T08:05:31;7.00;;;4.80;;
61477;SDS011;47345;52.334;10.392;2022-10-22T08:08:02;7.70;;;5.10;;
61477;SDS011;47345;52.334;10.392;2022-10-22T08:10:33;7.50;;;4.80;;
61477;SDS011;47345;52.334;10.392;2022-10-22T08:13:04;8.30;;;4.60;;
61477;SDS011;47345;52.334;10.392;2022-10-22T08:15:35;6.10;;;4.50;;
61477;SDS011;47345;52.334;10.392;2022-10-22T08:18:06;11.20;;;5.40;;
61477;SDS011;47345;52.334;10.392;2022-10-22T08:20:38;7.50;;;5.10;;
61477;SDS011;47345;52.334;10.392;2022-10-22T08:23:09;8.50;;;4.90;;
61477;SDS011;47345;52.334;10.392;2022-10-22T08:25:39;8.00;;;5.10;;
61477;SDS011;47345;52.334;10.392;2022-10-22T08:28:10;7.60;;;5.00;;
61477;SDS011;47345;52.334;10.392;2022-10-22T08:30:46;8.60;;;5.60;;
61477;SDS011;47345;52.334;10.392;2022-10-22T08:33:23;7.80;;;4.80;;
61477;SDS011;47345;52.334;10.392;2022-10-22T08:35:54;6.10;;;4.30;;
61477;SDS011;47345;52.334;10.392;2022-10-22T08:38:25;6.50;;;4.60;;
61477;SDS011;47345;52.334;10.392;2022-10-22T08:40:59;6.30;;;4.20;;
61477;SDS011;47345;52.334;10.392;2022-10-22T08:43:46;6.40;;;4.70;;
61477;SDS011;47345;52.334;10.392;2022-10-22T08:46:31;8.50;;;4.80;;
61477;SDS011;47345;52.334;10.392;2022-10-22T08:49:14;5.90;;;4.20;;
61477;SDS011;47345;52.334;10.392;2022-10-22T08:51:48;9.80;;;4.50;;
61477;SDS011;47345;52.334;10.392;2022-10-22T08:54:26;6.60;;;4.30;;
61477;SDS011;47345;52.334;10.392;2022-10-22T08:57:09;5.80;;;4.20;;
61477;SDS011;47345;52.334;10.392;2022-10-22T08:59:50;8.50;;;4.10;;
61477;SDS011;47345;52.334;10.392;2022-10-22T09:02:32;5.10;;;3.90;;
61477;SDS011;47345;52.334;10.392;2022-10-22T09:05:16;3.90;;;3.50;;
61477;SDS011;47345;52.334;10.392;2022-10-22T09:08:00;5.20;;;3.70;;
61477;SDS011;47345;52.334;10.392;2022-10-22T09:10:34;7.60;;;3.90;;
61477;SDS011;47345;52.334;10.392;2022-10-22T09:13:09;4.30;;;3.40;;
61477;SDS011;47345;52.334;10.392;2022-10-22T09:15:43;5.40;;;3.20;;
61477;SDS011;47345;52.334;10.392;2022-10-22T09:18:21;6.40;;;3.10;;
61477;SDS011;47345;52.334;10.392;2022-10-22T09:21:02;6.50;;;3.30;;
61477;SDS011;47345;52.334;10.392;2022-10-22T09:23:46;3.30;;;2.90;;
61477;SDS011;47345;52.334;10.392;2022-10-22T09:26:24;3.50;;;3.00;;
61477;SDS011;47345;52.334;10.392;2022-10-22T09:28:58;4.60;;;3.20;;
61477;SDS011;47345;52.334;10.392;2022-10-22T09:31:29;4.80;;;3.00;;
61477;SDS011;47345;52.334;10.392;2022-10-22T09:34:01;4.30;;;2.90;;
61477;SDS011;47345;52.334;10.392;2022-10-22T09:36:34;3.50;;;3.10;;
61477;SDS011;47345;52.334;10.392;2022-10-22T09:39:12;3.90;;;3.40;;
61477;SDS011;47345;52.334;10.392;2022-10-22T09:41:52;4.70;;;3.30;;
61477;SDS011;47345;52.334;10.392;2022-10-22T09:44:23;4.30;;;3.10;;
61477;SDS011;47345;52.334;10.392;2022-10-22T09:46:54;4.80;;;3.50;;
61477;SDS011;47345;52.334;10.392;2022-10-22T09:49:24;3.70;;;3.30;;
61477;SDS011;47345;52.334;10.392;2022-10-22T09:52:01;3.90;;;3.10;;
61477;SDS011;47345;52.334;10.392;2022-10-22T09:54:49;4.60;;;3.30;;
61477;SDS011;47345;52.334;10.392;2022-10-22T09:57:21;6.10;;;3.90;;
61477;SDS011;47345;52.334;10.392;2022-10-22T09:59:56;4.70;;;3.60;;
61477;SDS011;47345;52.334;10.392;2022-10-22T10:02:27;5.50;;;3.30;;
61477;SDS011;47345;52.334;10.392;2022-10-22T10:05:07;7.00;;;3.40;;
61477;SDS011;47345;52.334;10.392;2022-10-22T10:07:46;4.80;;;3.70;;
61477;SDS011;47345;52.334;10.392;2022-10-22T10:10:18;4.60;;;3.80;;
61477;SDS011;47345;52.334;10.392;2022-10-22T10:12:54;5.30;;;3.60;;
61477;SDS011;47345;52.334;10.392;2022-10-22T10:15:30;7.80;;;4.10;;
61477;SDS011;47345;52.334;10.392;2022-10-22T10:18:07;5.70;;;3.80;;
61477;SDS011;47345;52.334;10.392;2022-10-22T10:20:51;4.30;;;3.40;;
61477;SDS011;47345;52.334;10.392;2022-10-22T10:26:02;5.00;;;3.30;;
61477;SDS011;47345;52.334;10.392;2022-10-22T10:31:35;6.20;;;3.80;;
61477;SDS011;47345;52.334;10.392;2022-10-22T10:34:16;7.40;;;3.50;;
61477;SDS011;47345;52.334;10.392;2022-10-22T10:36:57;6.60;;;3.60;;
61477;SDS011;47345;52.334;10.392;2022-10-22T10:39:51;4.30;;;3.40;;
61477;SDS011;47345;52.334;10.392;2022-10-22T10:42:32;4.70;;;3.40;;
61477;SDS011;47345;52.334;10.392;2022-10-22T10:45:10;5.70;;;3.90;;
61477;SDS011;47345;52.334;10.392;2022-10-22T10:48:00;4.30;;;3.40;;
61477;SDS011;47345;52.334;10.392;2022-10-22T10:50:46;4.50;;;3.20;;
61477;SDS011;47345;52.334;10.392;2022-10-22T10:53:26;5.60;;;3.30;;
61477;SDS011;47345;52.334;10.392;2022-10-22T10:56:08;3.10;;;2.70;;
61477;SDS011;47345;52.334;10.392;2022-10-22T10:58:53;3.40;;;3.00;;
61477;SDS011;47345;52.334;10.392;2022-10-22T11:04:25;11.10;;;2.90;;
61477;SDS011;47345;52.334;10.392;2022-10-22T11:07:13;4.20;;;2.90;;
61477;SDS011;47345;52.334;10.392;2022-10-22T11:12:43;2.70;;;2.40;;
61477;SDS011;47345;52.334;10.392;2022-10-22T11:15:21;5.80;;;3.10;;
61477;SDS011;47345;52.334;10.392;2022-10-22T11:17:56;2.60;;;2.40;;
61477;SDS011;47345;52.334;10.392;2022-10-22T11:20:37;5.40;;;2.70;;
61477;SDS011;47345;52.334;10.392;2022-10-22T11:23:17;4.40;;;2.50;;
61477;SDS011;47345;52.334;10.392;2022-10-22T11:25:56;3.00;;;2.50;;
61477;SDS011;47345;52.334;10.392;2022-10-22T11:28:29;5.10;;;2.50;;
61477;SDS011;47345;52.334;10.392;2022-10-22T11:31:06;3.60;;;2.60;;
61477;SDS011;47345;52.334;10.392;2022-10-22T11:33:44;5.50;;;2.80;;
61477;SDS011;47345;52.334;10.392;2022-10-22T11:36:36;3.40;;;2.80;;
61477;SDS011;47345;52.334;10.392;2022-10-22T11:39:14;3.50;;;2.60;;
61477;SDS011;47345;52.334;10.392;2022-10-22T11:41:59;4.20;;;2.80;;
61477;SDS011;47345;52.334;10.392;2022-10-22T11:44:45;4.20;;;2.50;;
61477;SDS011;47345;52.334;10.392;2022-10-22T11:47:27;4.10;;;2.60;;
61477;SDS011;47345;52.334;10.392;2022-10-22T11:50:01;3.80;;;2.50;;
61477;SDS011;47345;52.334;10.392;2022-10-22T11:52:52;3.80;;;2.80;;
61477;SDS011;47345;52.334;10.392;2022-10-22T11:55:31;4.20;;;2.50;;
61477;SDS011;47345;52.334;10.392;2022-10-22T11:58:29;2.80;;;2.50;;
61477;SDS011;47345;52.334;10.392;2022-10-22T12:01:20;3.40;;;2.50;;
61477;SDS011;47345;52.334;10.392;2022-10-22T12:04:20;4.50;;;2.80;;
61477;SDS011;47345;52.334;10.392;2022-10-22T12:07:24;3.20;;;2.50;;
61477;SDS011;47345;52.334;10.392;2022-10-22T12:10:05;4.90;;;2.80;;
61477;SDS011;47345;52.334;10.392;2022-10-22T12:12:50;3.30;;;2.50;;
61477;SDS011;47345;52.334;10.392;2022-10-22T12:15:25;4.30;;;2.60;;
61477;SDS011;47345;52.334;10.392;2022-10-22T12:17:59;4.50;;;2.90;;
61477;SDS011;47345;52.334;10.392;2022-10-22T12:20:32;4.10;;;2.50;;
61477;SDS011;47345;52.334;10.392;2022-10-22T12:23:03;6.60;;;2.60;;
61477;SDS011;47345;52.334;10.392;2022-10-22T12:25:37;4.70;;;2.50;;
61477;SDS011;47345;52.334;10.392;2022-10-22T12:28:09;4.30;;;2.60;;
61477;SDS011;47345;52.334;10.392;2022-10-22T12:30:42;2.70;;;2.20;;
61477;SDS011;47345;52.334;10.392;2022-10-22T12:33:17;2.80;;;2.30;;
61477;SDS011;47345;52.334;10.392;2022-10-22T12:35:49;3.90;;;2.50;;
61477;SDS011;47345;52.334;10.392;2022-10-22T12:38:24;8.10;;;2.70;;
61477;SDS011;47345;52.334;10.392;2022-10-22T12:40:55;3.20;;;2.70;;
61477;SDS011;47345;52.334;10.392;2022-10-22T12:43:27;5.40;;;2.90;;
61477;SDS011;47345;52.334;10.392;2022-10-22T12:46:00;3.70;;;2.80;;
61477;SDS011;47345;52.334;10.392;2022-10-22T12:48:31;3.30;;;2.60;;
61477;SDS011;47345;52.334;10.392;2022-10-22T12:51:06;4.80;;;2.50;;
61477;SDS011;47345;52.334;10.392;2022-10-22T12:53:43;7.60;;;2.70;;
61477;SDS011;47345;52.334;10.392;2022-10-22T12:56:16;4.30;;;2.60;;
61477;SDS011;47345;52.334;10.392;2022-10-22T12:58:52;3.30;;;2.60;;
61477;SDS011;47345;52.334;10.392;2022-10-22T13:01:26;11.50;;;3.20;;
61477;SDS011;47345;52.334;10.392;2022-10-22T13:04:05;6.70;;;2.90;;
61477;SDS011;47345;52.334;10.392;2022-10-22T13:06:48;4.90;;;2.50;;
61477;SDS011;47345;52.334;10.392;2022-10-22T13:09:21;4.20;;;2.50;;
61477;SDS011;47345;52.334;10.392;2022-10-22T13:11:55;2.80;;;2.30;;
61477;SDS011;47345;52.334;10.392;2022-10-22T13:14:32;2.90;;;2.30;;
61477;SDS011;47345;52.334;10.392;2022-10-22T13:17:06;4.50;;;2.50;;
61477;SDS011;47345;52.334;10.392;2022-10-22T13:19:41;2.90;;;2.50;;
61477;SDS011;47345;52.334;10.392;2022-10-22T13:22:27;5.80;;;2.60;;
61477;SDS011;47345;52.334;10.392;2022-10-22T13:25:14;2.50;;;2.20;;
61477;SDS011;47345;52.334;10.392;2022-10-22T13:27:50;4.70;;;2.50;;
61477;SDS011;47345;52.334;10.392;2022-10-22T13:30:23;2.40;;;2.20;;
61477;SDS011;47345;52.334;10.392;2022-10-22T13:32:56;3.90;;;2.20;;
61477;SDS011;47345;52.334;10.392;2022-10-22T13:35:28;4.20;;;2.40;;
61477;SDS011;47345;52.334;10.392;2022-10-22T13:38:00;2.30;;;2.10;;
61477;SDS011;47345;52.334;10.392;2022-10-22T13:40:31;4.40;;;2.40;;
61477;SDS011;47345;52.334;10.392;2022-10-22T13:43:02;7.50;;;2.00;;
61477;SDS011;47345;52.334;10.392;2022-10-22T13:45:33;4.20;;;2.40;;
61477;SDS011;47345;52.334;10.392;2022-10-22T13:48:04;4.40;;;2.20;;
61477;SDS011;47345;52.334;10.392;2022-10-22T13:50:41;2.90;;;2.20;;
61477;SDS011;47345;52.334;10.392;2022-10-22T13:53:14;4.30;;;2.30;;
61477;SDS011;47345;52.334;10.392;2022-10-22T13:55:46;2.80;;;2.00;;
61477;SDS011;47345;52.334;10.392;2022-10-22T13:58:18;2.90;;;2.10;;
61477;SDS011;47345;52.334;10.392;2022-10-22T14:00:51;2.40;;;2.20;;
61477;SDS011;47345;52.334;10.392;2022-10-22T14:03:25;4.80;;;1.70;;
61477;SDS011;47345;52.334;10.392;2022-10-22T14:05:58;3.00;;;1.90;;
61477;SDS011;47345;52.334;10.392;2022-10-22T14:08:30;2.20;;;1.90;;
61477;SDS011;47345;52.334;10.392;2022-10-22T14:11:01;4.20;;;1.90;;
61477;SDS011;47345;52.334;10.392;2022-10-22T14:13:32;2.70;;;2.00;;
61477;SDS011;47345;52.334;10.392;2022-10-22T14:16:02;2.20;;;1.80;;
61477;SDS011;47345;52.334;10.392;2022-10-22T14:18:35;2.60;;;1.70;;
61477;SDS011;47345;52.334;10.392;2022-10-22T14:21:05;2.80;;;2.00;;
61477;SDS011;47345;52.334;10.392;2022-10-22T14:23:38;3.00;;;2.10;;
61477;SDS011;47345;52.334;10.392;2022-10-22T14:26:13;6.20;;;2.30;;
61477;SDS011;47345;52.334;10.392;2022-10-22T14:28:50;4.60;;;2.80;;
61477;SDS011;47345;52.334;10.392;2022-10-22T14:31:38;3.20;;;2.00;;
61477;SDS011;47345;52.334;10.392;2022-10-22T14:34:12;2.70;;;2.10;;
61477;SDS011;47345;52.334;10.392;2022-10-22T14:36:43;4.60;;;2.00;;
61477;SDS011;47345;52.334;10.392;2022-10-22T14:39:14;5.00;;;2.10;;
61477;SDS011;47345;52.334;10.392;2022-10-22T14:41:45;2.90;;;1.80;;
61477;SDS011;47345;52.334;10.392;2022-10-22T14:44:16;3.50;;;1.70;;
61477;SDS011;47345;52.334;10.392;2022-10-22T14:46:47;4.40;;;1.90;;
61477;SDS011;47345;52.334;10.392;2022-10-22T14:49:20;5.20;;;1.70;;
61477;SDS011;47345;52.334;10.392;2022-10-22T14:51:51;3.30;;;1.80;;
61477;SDS011;47345;52.334;10.392;2022-10-22T14:54:22;5.90;;;2.50;;
61477;SDS011;47345;52.334;10.392;2022-10-22T14:56:53;6.20;;;2.90;;
61477;SDS011;47345;52.334;10.392;2022-10-22T14:59:23;6.00;;;2.90;;
61477;SDS011;47345;52.334;10.392;2022-10-22T15:01:54;3.20;;;2.20;;
61477;SDS011;47345;52.334;10.392;2022-10-22T15:04:25;5.80;;;2.30;;
61477;SDS011;47345;52.334;10.392;2022-10-22T15:06:57;1.80;;;1.70;;
61477;SDS011;47345;52.334;10.392;2022-10-22T15:09:27;2.40;;;1.60;;
61477;SDS011;47345;52.334;10.392;2022-10-22T15:11:58;5.60;;;1.80;;
61477;SDS011;47345;52.334;10.392;2022-10-22T15:14:29;7.90;;;3.10;;
61477;SDS011;47345;52.334;10.392;2022-10-22T15:17:00;5.40;;;2.80;;
61477;SDS011;47345;52.334;10.392;2022-10-22T15:19:31;3.10;;;1.70;;
61477;SDS011;47345;52.334;10.392;2022-10-22T15:22:02;2.20;;;1.70;;
61477;SDS011;47345;52.334;10.392;2022-10-22T15:24:33;1.70;;;1.50;;